Terminal Aerodrome Forecast
Issued by NWS

Home | Current Version | Previous Version | Text Only | Print | Product List | Glossary On
Versions: 1 2 3 4 5 6 7 8 9 10 11 12 13 14 15 16 17 18 19
000
FTUS42 KKEY 032357 AAB
TAFMTH
TAF AMD
KMTH 032357Z 0400/0424 32007KT P6SM FEW015
     FM040200 VRB03KT P6SM FEW015
     FM040400 20006KT P6SM SCT015 BKN100
     FM041200 23011KT P6SM SCT015 BKN100
     FM041800 25014G22KT P6SM VCSH SCT015 BKN050 PROB30 0418/0424
      1SM +TSRA BKN015CB=

USA.gov is the U.S. government's official web portal to all federal, state and local government web resources and services.